createdAt,value
2022-09-12T00:00:00.572Z,17.80
2022-09-12T00:02:28.439Z,17.70
2022-09-12T00:04:57.657Z,17.50
2022-09-12T00:07:25.521Z,17.50
2022-09-12T00:09:53.387Z,17.70
2022-09-12T00:12:21.259Z,18.10
2022-09-12T00:14:49.100Z,18.00
2022-09-12T00:17:16.977Z,18.20
2022-09-12T00:19:44.849Z,18.10
2022-09-12T00:22:14.076Z,18.00
2022-09-12T00:24:41.937Z,18.10
2022-09-12T00:27:09.868Z,18.30
2022-09-12T00:29:37.693Z,18.20
2022-09-12T00:32:05.888Z,17.90
2022-09-12T00:34:33.725Z,17.60
2022-09-12T00:37:01.603Z,17.30
2022-09-12T00:39:30.788Z,17.20
2022-09-12T00:41:58.657Z,17.30
2022-09-12T00:44:45.884Z,17.70
2022-09-12T00:47:15.506Z,17.10
2022-09-12T00:49:45.120Z,17.10
2022-09-12T00:52:13.226Z,17.20
2022-09-12T00:54:44.731Z,17.00
2022-09-12T00:57:12.740Z,17.30
2022-09-12T00:59:41.064Z,17.30
2022-09-12T01:02:09.043Z,17.30
2022-09-12T01:04:37.052Z,17.30
2022-09-12T01:07:05.025Z,17.50
2022-09-12T01:09:32.878Z,17.60
2022-09-12T01:12:02.268Z,17.60
2022-09-12T01:14:30.164Z,17.50
2022-09-12T01:16:58.044Z,17.50
2022-09-12T01:19:51.359Z,17.70
2022-09-12T01:22:26.766Z,17.80
2022-09-12T01:24:55.168Z,17.90
2022-09-12T01:27:40.272Z,17.60
2022-09-12T01:30:25.793Z,17.80
2022-09-12T01:33:17.898Z,17.60
2022-09-12T01:35:49.486Z,17.40
2022-09-12T01:38:20.872Z,17.50
2022-09-12T01:40:50.354Z,17.60
2022-09-12T01:43:19.369Z,17.70
2022-09-12T01:45:47.666Z,17.70
2022-09-12T01:48:16.765Z,17.70
2022-09-12T01:50:47.403Z,17.50
2022-09-12T01:53:17.288Z,16.90
2022-09-12T01:55:45.485Z,16.80
2022-09-12T01:58:13.770Z,17.00
2022-09-12T02:00:43.578Z,17.20
2022-09-12T02:03:12.490Z,16.90
2022-09-12T02:05:40.894Z,16.90
2022-09-12T02:08:09.739Z,17.00
2022-09-12T02:10:41.862Z,16.80
2022-09-12T02:13:10.979Z,17.10
2022-09-12T02:15:39.632Z,17.20
2022-09-12T02:18:07.574Z,17.10
2022-09-12T02:20:51.033Z,17.00
2022-09-12T02:23:20.616Z,16.90
2022-09-12T02:25:50.212Z,17.00
2022-09-12T02:28:18.450Z,17.30
2022-09-12T02:30:47.105Z,17.30
2022-09-12T02:33:16.334Z,17.10
2022-09-12T02:35:45.477Z,16.90
2022-09-12T02:38:14.373Z,16.80
2022-09-12T02:40:42.246Z,17.00
2022-09-12T02:43:11.503Z,17.20
2022-09-12T02:45:39.402Z,16.70
2022-09-12T02:48:07.503Z,17.20
2022-09-12T02:50:35.346Z,17.00
2022-09-12T02:53:05.075Z,17.10
2022-09-12T02:55:32.966Z,16.90
2022-09-12T02:58:01.197Z,16.80
2022-09-12T03:00:31.099Z,16.60
2022-09-12T03:03:10.872Z,16.50
2022-09-12T03:05:39.065Z,16.80
2022-09-12T03:08:14.342Z,16.50
2022-09-12T03:10:44.157Z,16.60
2022-09-12T03:13:16.033Z,16.50
2022-09-12T03:15:47.407Z,16.80
2022-09-12T03:18:19.853Z,16.80
2022-09-12T03:20:49.500Z,16.80
2022-09-12T03:23:20.185Z,16.70
2022-09-12T03:25:49.335Z,16.70
2022-09-12T03:28:17.382Z,16.50
2022-09-12T03:30:46.919Z,16.70
2022-09-12T03:33:14.911Z,16.30
2022-09-12T03:35:43.118Z,16.30
2022-09-12T03:38:11.032Z,16.60
2022-09-12T03:40:38.904Z,16.80
2022-09-12T03:43:07.956Z,16.90
2022-09-12T03:45:37.907Z,16.90
2022-09-12T03:48:07.443Z,16.60
2022-09-12T03:50:35.294Z,16.60
2022-09-12T03:53:03.184Z,16.30
2022-09-12T03:55:31.126Z,16.70
2022-09-12T03:57:58.990Z,16.40
2022-09-12T04:00:27.314Z,16.40
2022-09-12T04:02:56.418Z,16.40
2022-09-12T04:05:25.761Z,16.30
2022-09-12T04:07:53.632Z,16.30
2022-09-12T04:10:21.490Z,16.30
2022-09-12T04:12:49.382Z,16.30
2022-09-12T04:15:17.241Z,16.10
2022-09-12T04:17:45.096Z,16.30
2022-09-12T04:20:12.935Z,16.50
2022-09-12T04:22:42.186Z,16.70
2022-09-12T04:25:10.540Z,16.70
2022-09-12T04:27:38.524Z,16.50
2022-09-12T04:30:06.953Z,16.10
2022-09-12T04:32:34.831Z,16.00
2022-09-12T04:35:02.666Z,16.20
2022-09-12T04:37:30.544Z,16.40
2022-09-12T04:39:59.773Z,16.50
2022-09-12T04:42:27.683Z,16.30
2022-09-12T04:44:55.514Z,16.30
2022-09-12T04:47:23.397Z,16.50
2022-09-12T04:49:51.638Z,16.50
2022-09-12T04:52:19.526Z,16.70
2022-09-12T04:54:47.392Z,16.60
2022-09-12T04:57:16.640Z,16.30
2022-09-12T04:59:44.519Z,16.30
2022-09-12T05:02:12.422Z,16.50
2022-09-12T05:04:40.770Z,16.60
2022-09-12T05:07:08.633Z,16.60
2022-09-12T05:09:36.474Z,16.50
2022-09-12T05:12:05.543Z,16.20
2022-09-12T05:14:35.703Z,16.20
2022-09-12T05:17:04.221Z,16.20
2022-09-12T05:19:32.287Z,16.10
2022-09-12T05:22:00.334Z,16.30
2022-09-12T05:24:28.188Z,16.20
2022-09-12T05:26:56.063Z,16.30
2022-09-12T05:29:25.210Z,16.40
2022-09-12T05:31:54.519Z,16.60
2022-09-12T05:34:22.498Z,16.50
2022-09-12T05:36:50.412Z,16.30
2022-09-12T05:39:18.623Z,16.70
2022-09-12T05:41:47.619Z,16.50
2022-09-12T05:44:15.597Z,16.40
2022-09-12T05:46:44.315Z,16.50
2022-09-12T05:49:14.731Z,16.50
2022-09-12T05:51:43.037Z,16.40
2022-09-12T05:54:12.012Z,16.30
2022-09-12T05:56:40.811Z,16.40
2022-09-12T05:59:09.069Z,16.80
2022-09-12T06:01:36.994Z,16.90
2022-09-12T06:04:05.634Z,16.80
2022-09-12T06:06:36.908Z,16.70
2022-09-12T06:09:05.407Z,16.70
2022-09-12T06:11:33.923Z,16.80
2022-09-12T06:14:01.790Z,16.80
2022-09-12T06:16:30.187Z,17.40
2022-09-12T06:18:58.476Z,18.70
2022-09-12T06:21:26.550Z,19.00
2022-09-12T06:23:55.951Z,19.50
2022-09-12T06:26:25.734Z,19.50
2022-09-12T06:28:54.076Z,19.40
2022-09-12T06:31:22.473Z,19.50
2022-09-12T06:33:51.828Z,19.50
2022-09-12T06:36:21.201Z,19.50
2022-09-12T06:38:49.810Z,19.50
2022-09-12T06:41:19.058Z,19.50
2022-09-12T06:43:46.984Z,19.90
2022-09-12T06:46:15.018Z,20.20
2022-09-12T06:48:43.054Z,20.00
2022-09-12T06:51:11.487Z,20.00
2022-09-12T06:53:39.470Z,20.40
2022-09-12T06:56:07.921Z,20.40
2022-09-12T06:58:37.231Z,20.40
2022-09-12T07:01:05.484Z,20.70
2022-09-12T07:03:33.701Z,21.10
2022-09-12T07:06:03.500Z,20.90
2022-09-12T07:08:31.911Z,21.30
2022-09-12T07:11:01.332Z,21.30
2022-09-12T07:13:29.954Z,21.70
2022-09-12T07:15:59.668Z,21.40
2022-09-12T07:18:27.688Z,21.80
2022-09-12T07:20:55.536Z,21.90
2022-09-12T07:23:23.400Z,22.30
2022-09-12T07:25:53.696Z,22.70
2022-09-12T07:28:23.608Z,22.00
2022-09-12T07:30:51.575Z,22.80
2022-09-12T07:33:21.275Z,23.00
2022-09-12T07:35:49.638Z,23.10
2022-09-12T07:38:17.661Z,23.40
2022-09-12T07:40:45.580Z,23.40
2022-09-12T07:43:13.468Z,23.40
2022-09-12T07:45:42.768Z,23.60
2022-09-12T07:48:10.800Z,23.90
2022-09-12T07:50:44.533Z,23.90
2022-09-12T07:53:13.042Z,24.30
2022-09-12T07:55:40.923Z,24.30
2022-09-12T07:58:08.837Z,24.10
2022-09-12T08:00:37.856Z,24.30
2022-09-12T08:03:07.340Z,24.80
2022-09-12T08:05:35.264Z,24.90
2022-09-12T08:08:04.657Z,25.20
2022-09-12T08:10:32.493Z,25.10
2022-09-12T08:13:00.366Z,24.60
2022-09-12T08:15:28.285Z,24.50
2022-09-12T08:17:56.207Z,25.10
2022-09-12T08:20:28.166Z,24.70
2022-09-12T08:22:56.949Z,24.70
2022-09-12T08:25:27.174Z,24.00
2022-09-12T08:27:55.803Z,24.80
2022-09-12T08:30:23.668Z,25.70
2022-09-12T08:32:54.440Z,25.40
2022-09-12T08:35:22.332Z,25.80
2022-09-12T08:37:50.212Z,26.20
2022-09-12T08:40:19.047Z,26.00
2022-09-12T08:42:50.887Z,26.40
2022-09-12T08:45:19.659Z,25.70
2022-09-12T08:47:47.589Z,26.80
2022-09-12T08:50:17.763Z,26.00
2022-09-12T08:52:49.120Z,25.10
2022-09-12T08:55:26.180Z,26.10
2022-09-12T08:57:55.478Z,26.80
2022-09-12T09:00:23.650Z,26.90
2022-09-12T09:02:56.137Z,27.10
2022-09-12T09:05:24.693Z,26.20
2022-09-12T09:07:58.265Z,25.50
2022-09-12T09:10:28.249Z,26.20
2022-09-12T09:12:59.312Z,27.30
2022-09-12T09:15:41.348Z,29.90
2022-09-12T09:18:11.909Z,31.40
2022-09-12T09:20:40.147Z,29.80
2022-09-12T09:23:09.016Z,28.60
2022-09-12T09:25:42.227Z,28.40
2022-09-12T09:28:13.140Z,28.40
2022-09-12T09:30:41.108Z,28.20
2022-09-12T09:33:11.138Z,27.70
2022-09-12T09:35:40.309Z,27.90
2022-09-12T09:38:12.538Z,27.20
2022-09-12T09:40:42.852Z,26.80
2022-09-12T09:43:17.620Z,27.90
2022-09-12T09:45:47.816Z,28.10
2022-09-12T09:48:17.360Z,27.90
2022-09-12T09:50:45.448Z,28.10
2022-09-12T09:53:13.801Z,28.20
2022-09-12T09:55:42.289Z,27.90
2022-09-12T09:58:10.170Z,28.40
2022-09-12T10:00:39.700Z,28.30
2022-09-12T10:03:20.563Z,28.20
2022-09-12T10:05:48.962Z,28.40
2022-09-12T10:08:23.405Z,27.80
2022-09-12T10:10:55.163Z,27.10
2022-09-12T10:13:25.230Z,27.30
2022-09-12T10:16:01.261Z,27.60
2022-09-12T10:18:39.166Z,28.00
2022-09-12T10:21:14.065Z,28.30
2022-09-12T10:23:42.087Z,28.60
2022-09-12T10:26:11.330Z,28.00
2022-09-12T10:28:39.876Z,28.50
2022-09-12T10:31:09.950Z,28.60
2022-09-12T10:33:41.482Z,28.70
2022-09-12T10:36:09.394Z,27.90
2022-09-12T10:38:37.505Z,29.10
2022-09-12T10:41:06.593Z,29.30
2022-09-12T10:43:36.281Z,29.20
2022-09-12T10:46:19.401Z,28.80
2022-09-12T10:48:48.743Z,28.50
2022-09-12T10:51:17.092Z,29.30
2022-09-12T10:53:45.663Z,29.60
2022-09-12T10:56:13.870Z,29.30
2022-09-12T10:58:49.906Z,29.10
2022-09-12T11:01:20.290Z,28.90
2022-09-12T11:03:54.379Z,28.00
2022-09-12T11:06:25.131Z,28.50
2022-09-12T11:08:55.960Z,29.20
2022-09-12T11:11:29.736Z,29.50
2022-09-12T11:14:01.142Z,30.20
2022-09-12T11:16:31.364Z,29.90
2022-09-12T11:19:17.164Z,30.00
2022-09-12T11:21:49.735Z,30.10
2022-09-12T11:24:23.949Z,29.40
2022-09-12T11:26:54.496Z,30.40
2022-09-12T11:29:24.819Z,30.60
2022-09-12T11:32:04.114Z,30.90
2022-09-12T11:34:34.637Z,30.70
2022-09-12T11:37:18.170Z,30.50
2022-09-12T11:39:46.824Z,30.40
2022-09-12T11:42:16.974Z,30.30
2022-09-12T11:44:46.174Z,30.40
2022-09-12T11:47:14.600Z,30.40
2022-09-12T11:49:43.349Z,30.30
2022-09-12T11:52:15.041Z,30.70
2022-09-12T11:54:53.861Z,31.10
2022-09-12T11:57:29.953Z,31.20
2022-09-12T12:00:05.179Z,30.60
2022-09-12T12:02:44.600Z,31.10
2022-09-12T12:05:31.758Z,30.60
2022-09-12T12:08:02.527Z,30.20
2022-09-12T12:10:36.371Z,30.80
2022-09-12T12:13:05.838Z,30.80
2022-09-12T12:15:41.933Z,31.20
2022-09-12T12:18:43.415Z,31.10
2022-09-12T12:21:35.583Z,30.30
2022-09-12T12:24:23.155Z,30.90
2022-09-12T12:27:00.980Z,30.80
2022-09-12T12:29:52.640Z,30.40
2022-09-12T12:32:29.967Z,30.80
2022-09-12T12:35:19.010Z,31.10
2022-09-12T12:44:05.935Z,29.60
2022-09-12T12:46:48.602Z,29.90
2022-09-12T12:49:40.069Z,30.70
2022-09-12T12:55:33.965Z,31.40
2022-09-12T12:58:02.313Z,31.70
2022-09-12T13:00:58.646Z,30.70
2022-09-12T13:03:32.013Z,31.20
2022-09-12T13:06:09.730Z,30.50
2022-09-12T13:08:49.238Z,30.50
2022-09-12T13:11:19.138Z,31.30
2022-09-12T13:14:01.130Z,31.60
2022-09-12T13:16:59.670Z,31.20
2022-09-12T13:20:16.927Z,30.50
2022-09-12T13:22:51.815Z,30.90
2022-09-12T13:25:24.088Z,31.30
2022-09-12T13:28:01.593Z,31.60
2022-09-12T13:30:29.672Z,32.20
2022-09-12T13:32:58.176Z,31.80
2022-09-12T13:35:41.932Z,31.70
2022-09-12T13:38:19.518Z,32.00
2022-09-12T13:41:03.435Z,31.70
2022-09-12T13:43:41.299Z,30.30
2022-09-12T13:46:11.120Z,30.80
2022-09-12T13:48:49.404Z,30.90
2022-09-12T13:51:28.004Z,30.90
2022-09-12T13:54:08.680Z,30.10
2022-09-12T13:56:59.077Z,31.00
2022-09-12T13:59:33.304Z,31.60
2022-09-12T14:02:06.572Z,31.70
2022-09-12T14:04:59.058Z,31.30
2022-09-12T14:07:31.387Z,30.70
2022-09-12T14:10:07.053Z,31.30
2022-09-12T14:12:41.107Z,30.60
2022-09-12T14:15:12.190Z,31.20
2022-09-12T14:17:41.906Z,31.30
2022-09-12T14:20:12.775Z,31.80
2022-09-12T14:22:52.540Z,31.50
2022-09-12T14:25:24.791Z,31.20
2022-09-12T14:28:03.997Z,31.00
2022-09-12T14:30:35.073Z,30.90
2022-09-12T14:33:28.465Z,30.80
2022-09-12T14:36:09.049Z,31.10
2022-09-12T14:38:47.460Z,30.30
2022-09-12T14:41:15.850Z,31.20
2022-09-12T14:43:44.240Z,30.90
2022-09-12T14:46:16.640Z,30.80
2022-09-12T14:48:45.695Z,30.70
2022-09-12T14:51:17.833Z,30.30
2022-09-12T14:53:50.227Z,31.00
2022-09-12T14:56:18.253Z,30.50
2022-09-12T14:58:46.246Z,30.50
2022-09-12T15:01:24.610Z,30.50
2022-09-12T15:03:54.028Z,30.90
2022-09-12T15:06:23.164Z,30.80
2022-09-12T15:08:52.489Z,31.00
2022-09-12T15:11:20.409Z,31.10
2022-09-12T15:13:48.385Z,30.90
2022-09-12T15:16:16.518Z,31.00
2022-09-12T15:18:44.652Z,31.30
2022-09-12T15:21:16.155Z,31.20
2022-09-12T15:23:44.993Z,30.90
2022-09-12T15:26:35.440Z,30.60
2022-09-12T15:29:23.974Z,30.60
2022-09-12T15:32:01.865Z,29.80
2022-09-12T15:34:43.834Z,29.70
2022-09-12T15:37:29.299Z,29.20
2022-09-12T15:42:50.410Z,29.40
2022-09-12T15:45:27.143Z,29.60
2022-09-12T15:48:15.391Z,29.80
2022-09-12T15:50:47.907Z,30.20
2022-09-12T15:53:23.032Z,30.30
2022-09-12T15:56:08.644Z,30.10
2022-09-12T15:59:02.750Z,30.20
2022-09-12T16:01:32.650Z,30.00
2022-09-12T16:04:03.407Z,30.60
2022-09-12T16:06:37.215Z,30.50
2022-09-12T16:09:07.364Z,30.10
2022-09-12T16:11:35.648Z,29.80
2022-09-12T16:14:03.840Z,30.20
2022-09-12T16:16:32.972Z,30.20
2022-09-12T16:19:02.549Z,30.20
2022-09-12T16:21:32.068Z,29.80
2022-09-12T16:24:00.173Z,29.10
2022-09-12T16:26:29.518Z,29.80
2022-09-12T16:28:57.634Z,30.20
2022-09-12T16:31:25.817Z,29.70
2022-09-12T16:33:53.907Z,29.50
2022-09-12T16:36:23.232Z,29.50
2022-09-12T16:38:52.396Z,29.20
2022-09-12T16:41:20.968Z,29.30
2022-09-12T16:43:49.475Z,29.60
2022-09-12T16:46:18.208Z,29.50
2022-09-12T16:48:51.765Z,29.70
2022-09-12T16:51:21.460Z,29.10
2022-09-12T16:53:51.085Z,29.10
2022-09-12T16:56:19.280Z,29.10
2022-09-12T16:58:47.812Z,28.90
2022-09-12T17:01:16.387Z,29.10
2022-09-12T17:03:44.458Z,29.10
2022-09-12T17:06:13.208Z,28.80
2022-09-12T17:08:41.862Z,28.60
2022-09-12T17:11:12.407Z,28.30
2022-09-12T17:14:03.128Z,27.90
2022-09-12T17:16:28.903Z,28.00
2022-09-12T17:18:56.925Z,27.60
2022-09-12T17:21:24.933Z,27.30
2022-09-12T17:23:52.927Z,27.40
2022-09-12T17:26:22.537Z,27.20
2022-09-12T17:28:51.060Z,27.10
2022-09-12T17:31:20.090Z,27.10
2022-09-12T17:33:48.504Z,26.60
2022-09-12T17:36:16.994Z,26.60
2022-09-12T17:38:45.377Z,26.40
2022-09-12T17:41:16.128Z,26.30
2022-09-12T17:43:46.096Z,26.00
2022-09-12T17:46:14.311Z,25.80
2022-09-12T17:48:42.643Z,25.50
2022-09-12T17:51:10.652Z,25.60
2022-09-12T17:53:38.731Z,25.40
2022-09-12T17:56:06.952Z,24.80
2022-09-12T17:58:34.906Z,25.10
2022-09-12T18:01:22.274Z,25.20
2022-09-12T18:03:50.754Z,24.50
2022-09-12T18:06:18.859Z,24.30
2022-09-12T18:08:46.781Z,24.30
2022-09-12T18:11:14.852Z,24.40
2022-09-12T18:13:42.828Z,24.30
2022-09-12T18:16:12.654Z,24.30
2022-09-12T18:18:40.853Z,24.20
2022-09-12T18:21:09.379Z,24.00
2022-09-12T18:23:37.293Z,24.10
2022-09-12T18:26:05.667Z,23.90
2022-09-12T18:28:33.674Z,23.70
2022-09-12T18:31:01.706Z,23.70
2022-09-12T18:33:31.105Z,23.70
2022-09-12T18:35:59.095Z,23.40
2022-09-12T18:38:26.991Z,23.20
2022-09-12T18:41:02.215Z,23.10
2022-09-12T18:43:30.356Z,23.00
2022-09-12T18:45:58.797Z,23.00
2022-09-12T18:48:26.765Z,22.60
2022-09-12T18:50:56.240Z,22.50
2022-09-12T18:53:24.180Z,22.90
2022-09-12T18:55:52.092Z,22.80
2022-09-12T18:58:20.165Z,22.80
2022-09-12T19:00:49.613Z,22.90
2022-09-12T19:03:17.607Z,22.80
2022-09-12T19:05:45.527Z,22.70
2022-09-12T19:08:14.967Z,22.40
2022-09-12T19:10:42.964Z,22.30
2022-09-12T19:13:10.887Z,22.10
2022-09-12T19:15:40.453Z,22.20
2022-09-12T19:18:09.634Z,22.20
2022-09-12T19:20:38.314Z,22.40
2022-09-12T19:23:06.655Z,22.30
2022-09-12T19:25:36.201Z,22.30
2022-09-12T19:28:04.174Z,22.20
2022-09-12T19:30:32.063Z,22.10
2022-09-12T19:33:00.514Z,22.20
2022-09-12T19:35:28.448Z,22.00
2022-09-12T19:37:56.442Z,21.80
2022-09-12T19:40:24.511Z,21.80
2022-09-12T19:42:53.899Z,21.70
2022-09-12T19:45:21.884Z,21.80
2022-09-12T19:47:49.917Z,21.60
2022-09-12T19:50:17.996Z,21.40
2022-09-12T19:52:45.903Z,21.30
2022-09-12T19:55:13.858Z,21.60
2022-09-12T19:57:41.823Z,21.60
2022-09-12T20:00:12.273Z,21.70
2022-09-12T20:02:40.423Z,21.40
2022-09-12T20:05:08.704Z,21.50
2022-09-12T20:07:36.837Z,21.40
2022-09-12T20:10:05.364Z,21.40
2022-09-12T20:12:33.864Z,21.00
2022-09-12T20:15:01.874Z,20.80
2022-09-12T20:17:31.700Z,21.00
2022-09-12T20:19:59.711Z,20.80
2022-09-12T20:22:27.892Z,21.10
2022-09-12T20:24:55.845Z,20.80
2022-09-12T20:27:23.819Z,20.90
2022-09-12T20:29:52.638Z,20.90
2022-09-12T20:32:20.651Z,20.80
2022-09-12T20:34:49.999Z,20.70
2022-09-12T20:37:18.094Z,20.80
2022-09-12T20:39:50.223Z,20.60
2022-09-12T20:42:18.773Z,20.70
2022-09-12T20:44:46.665Z,20.50
2022-09-12T20:47:14.648Z,20.50
2022-09-12T20:49:42.539Z,20.80
2022-09-12T20:52:11.947Z,20.80
2022-09-12T20:54:39.845Z,20.20
2022-09-12T20:57:07.797Z,19.90
2022-09-12T20:59:39.458Z,19.60
2022-09-12T21:02:07.492Z,19.70
2022-09-12T21:04:35.455Z,19.80
2022-09-12T21:07:03.464Z,19.80
2022-09-12T21:09:33.182Z,19.90
2022-09-12T21:12:01.286Z,19.70
2022-09-12T21:14:29.301Z,19.90
2022-09-12T21:16:57.202Z,20.00
2022-09-12T21:19:25.154Z,20.40
2022-09-12T21:21:53.148Z,20.70
2022-09-12T21:24:21.821Z,20.80
2022-09-12T21:26:51.243Z,20.70
2022-09-12T21:29:19.155Z,20.30
2022-09-12T21:31:47.158Z,20.60
2022-09-12T21:34:15.055Z,20.50
2022-09-12T21:36:43.448Z,20.20
2022-09-12T21:39:11.392Z,20.50
2022-09-12T21:41:39.439Z,20.20
2022-09-12T21:44:08.878Z,20.30
2022-09-12T21:46:36.883Z,20.30
2022-09-12T21:49:05.412Z,20.40
2022-09-12T21:51:33.382Z,20.20
2022-09-12T21:54:01.531Z,20.30
2022-09-12T21:56:29.566Z,20.30
2022-09-12T21:58:57.546Z,20.80
2022-09-12T22:01:26.967Z,21.30
2022-09-12T22:03:54.925Z,21.20
2022-09-12T22:06:22.845Z,21.10
2022-09-12T22:08:50.761Z,21.00
2022-09-12T22:11:21.356Z,20.80
2022-09-12T22:13:49.630Z,20.50
2022-09-12T22:16:17.851Z,20.70
2022-09-12T22:18:47.723Z,20.50
2022-09-12T22:21:15.918Z,20.40
2022-09-12T22:24:01.149Z,20.50
2022-09-12T22:26:29.265Z,20.50
2022-09-12T22:28:57.220Z,20.40
2022-09-12T22:31:26.646Z,20.30
2022-09-12T22:33:57.469Z,20.40
2022-09-12T22:36:30.505Z,20.80
2022-09-12T22:38:59.222Z,21.00
2022-09-12T22:41:27.245Z,21.30
2022-09-12T22:43:55.240Z,21.40
2022-09-12T22:46:24.075Z,20.60
2022-09-12T22:48:52.324Z,20.30
2022-09-12T22:51:21.609Z,20.50
2022-09-12T22:53:49.571Z,20.60
2022-09-12T22:56:17.506Z,20.80
2022-09-12T22:58:45.443Z,20.50
2022-09-12T23:01:13.419Z,20.30
2022-09-12T23:03:41.507Z,20.10
2022-09-12T23:06:10.054Z,19.80
2022-09-12T23:08:40.028Z,19.90
2022-09-12T23:11:09.399Z,19.70
2022-09-12T23:13:37.755Z,19.80
2022-09-12T23:16:06.304Z,19.90
2022-09-12T23:18:34.960Z,19.90
2022-09-12T23:21:03.481Z,20.40
2022-09-12T23:23:31.474Z,20.00
2022-09-12T23:26:04.365Z,19.70
2022-09-12T23:28:32.359Z,19.80
2022-09-12T23:31:00.706Z,19.70
2022-09-12T23:33:29.169Z,19.80
2022-09-12T23:36:01.868Z,20.00
2022-09-12T23:38:30.208Z,20.00
2022-09-12T23:40:58.123Z,19.70
2022-09-12T23:43:27.498Z,19.70
2022-09-12T23:45:55.562Z,19.80
2022-09-12T23:48:23.600Z,19.80
2022-09-12T23:50:51.837Z,20.00
2022-09-12T23:53:19.922Z,19.80
2022-09-12T23:55:47.886Z,19.80
2022-09-12T23:58:15.903Z,20.00
